Time;durP1;ratioP1;P1;durP2;ratioP2;P2;SDS_P1;SDS_P2;PMS_P1;PMS_P2;Temp;Humidity;BMP_temperature;BMP_pressure;BME280_temperature;BME280_humidity;BME280_pressure;Samples;Min_cycle;Max_cycle;Signal;HPM_P1;HPM_P2
2022/10/24 00:02:18;;;;;;;0.30;0.30;;;12.80;99.90;;;;;;4980640;28;20500;-82
2022/10/24 00:04:44;;;;;;;0.20;0.20;;;12.80;99.90;;;;;;4979524;28;20137;-83
2022/10/24 00:07:10;;;;;;;0.20;0.20;;;12.60;99.90;;;;;;4979557;28;20108;-77
2022/10/24 00:09:36;;;;;;;5.90;5.47;;;12.70;99.90;;;;;;4979211;28;20019;-84
2022/10/24 00:12:03;;;;;;;0.20;0.20;;;12.60;99.90;;;;;;4978936;28;20034;-77
2022/10/24 00:14:28;;;;;;;0.75;0.75;;;12.60;99.90;;;;;;4979626;28;20023;-86
2022/10/24 00:16:54;;;;;;;0.10;0.10;;;12.50;99.90;;;;;;4979354;28;20038;-82
2022/10/24 00:19:20;;;;;;;0.40;0.40;;;12.50;99.90;;;;;;4980020;28;20084;-84
2022/10/24 00:21:47;;;;;;;0.10;0.10;;;12.50;99.90;;;;;;4980569;28;20037;-82
2022/10/24 00:24:13;;;;;;;0.10;0.10;;;12.50;99.90;;;;;;4984065;28;20026;-87
2022/10/24 00:26:39;;;;;;;0.10;0.10;;;12.40;99.90;;;;;;4968061;28;20336;-77
2022/10/24 00:29:05;;;;;;;0.13;0.13;;;12.40;99.90;;;;;;4965408;28;20249;-77
2022/10/24 00:31:31;;;;;;;0.10;0.10;;;12.40;99.90;;;;;;4979321;28;20048;-78
2022/10/24 00:33:58;;;;;;;7.60;6.80;;;12.40;99.90;;;;;;4961590;28;20018;-78
2022/10/24 00:36:25;;;;;;;0.60;0.60;;;12.30;99.90;;;;;;4979422;28;20030;-77
2022/10/24 00:38:51;;;;;;;0.20;0.20;;;12.30;99.90;;;;;;4962354;28;20528;-87
2022/10/24 00:41:26;;;;;;;0.10;0.10;;;12.30;99.90;;;;;;4980494;28;20023;-78
2022/10/24 00:44:26;;;;;;;0.10;0.10;;;12.30;99.90;;;;;;4980676;28;20217;-77
2022/10/24 00:47:04;;;;;;;0.30;0.30;;;12.40;99.90;;;;;;4980000;28;20022;-77
2022/10/24 00:49:51;;;;;;;0.20;0.20;;;12.30;99.90;;;;;;4983036;28;20034;-88
2022/10/24 00:52:24;;;;;;;0.20;0.20;;;12.30;99.90;;;;;;4900609;29;20487;-76
2022/10/24 00:54:52;;;;;;;0.15;0.15;;;12.30;99.90;;;;;;4901644;29;20435;-82
2022/10/24 00:57:40;;;;;;;0.17;0.17;;;12.30;99.90;;;;;;4900166;29;20032;-81
2022/10/24 01:00:14;;;;;;;16.85;15.57;;;12.20;99.90;;;;;;4906761;29;20402;-76
2022/10/24 01:02:40;;;;;;;0.10;0.10;;;12.20;99.90;;;;;;4905615;29;20028;-78
2022/10/24 01:05:08;;;;;;;16.35;6.80;;;12.20;99.90;;;;;;4902566;29;20029;-79
2022/10/24 01:08:04;;;;;;;0.10;0.10;;;12.20;99.90;;;;;;4903271;29;20078;-81
2022/10/24 01:11:13;;;;;;;0.13;0.13;;;12.10;99.90;;;;;;4903053;29;20028;-79
2022/10/24 01:13:46;;;;;;;0.17;0.17;;;12.10;99.90;;;;;;4864935;29;20068;-77
2022/10/24 01:16:47;;;;;;;0.20;0.20;;;10.90;99.90;;;;;;4852682;29;20133;-79
2022/10/24 01:19:32;;;;;;;0.20;0.20;;;12.10;99.90;;;;;;4793169;29;20342;-79
2022/10/24 01:22:04;;;;;;;0.10;0.10;;;12.10;99.90;;;;;;4811144;29;20273;-79
2022/10/24 01:24:45;;;;;;;0.10;0.10;;;12.00;99.90;;;;;;4796872;29;20105;-83
2022/10/24 01:27:49;;;;;;;0.10;0.10;;;12.00;99.90;;;;;;4814779;29;20058;-90
2022/10/24 01:30:16;;;;;;;0.10;0.10;;;12.00;99.90;;;;;;4814135;29;20046;-78
2022/10/24 01:33:17;;;;;;;1.23;1.23;;;11.90;99.90;;;;;;4814500;29;20023;-80
2022/10/24 01:35:58;;;;;;;6.22;5.78;;;11.90;99.90;;;;;;4820385;29;20042;-77
2022/10/24 01:38:54;;;;;;;0.38;0.38;;;11.90;99.90;;;;;;4814914;29;20034;-78
2022/10/24 01:41:25;;;;;;;0.10;0.10;;;11.80;99.90;;;;;;4829433;29;20118;-85
2022/10/24 01:44:36;;;;;;;0.20;0.20;;;11.80;99.90;;;;;;4826648;29;20038;-77
2022/10/24 01:47:17;;;;;;;0.10;0.10;;;11.70;99.90;;;;;;4829513;29;20049;-80
2022/10/24 01:50:02;;;;;;;4.40;3.15;;;11.80;99.90;;;;;;4885398;29;20044;-80
2022/10/24 01:52:33;;;;;;;1.65;1.55;;;11.70;99.90;;;;;;4912140;29;20056;-77
2022/10/24 01:54:59;;;;;;;0.17;0.17;;;11.70;99.90;;;;;;4937471;28;20053;-83
2022/10/24 01:57:48;;;;;;;0.28;0.28;;;11.70;99.90;;;;;;4983611;28;20529;-78
2022/10/24 02:00:22;;;;;;;0.10;0.10;;;11.70;99.90;;;;;;5012151;28;20300;-77
2022/10/24 02:02:54;;;;;;;0.10;0.10;;;11.70;99.90;;;;;;5010316;28;20037;-77
2022/10/24 02:05:38;;;;;;;0.20;0.20;;;14.60;99.90;;;;;;5011190;28;20081;-78
2022/10/24 02:08:09;;;;;;;0.20;0.20;;;11.60;99.90;;;;;;4986877;28;20074;-77
2022/10/24 02:10:52;;;;;;;0.17;0.17;;;11.60;99.90;;;;;;4969624;28;20037;-76
2022/10/24 02:13:41;;;;;;;0.10;0.10;;;11.60;99.90;;;;;;4986820;28;20041;-76
2022/10/24 02:16:07;;;;;;;0.95;0.95;;;11.60;99.90;;;;;;4986726;28;20041;-76
2022/10/24 02:18:36;;;;;;;0.17;0.17;;;11.50;99.90;;;;;;4986221;28;20521;-77
2022/10/24 02:21:26;;;;;;;0.10;0.10;;;11.60;99.90;;;;;;4993140;28;20054;-77
2022/10/24 02:24:27;;;;;;;0.10;0.10;;;11.50;99.90;;;;;;5010161;28;20018;-77
2022/10/24 02:26:59;;;;;;;0.20;0.20;;;11.50;99.90;;;;;;5011715;28;20035;-77
2022/10/24 02:29:51;;;;;;;0.10;0.10;;;11.50;99.90;;;;;;5013035;28;20081;-79
2022/10/24 02:32:35;;;;;;;6.88;6.43;;;11.50;99.90;;;;;;5010155;28;20092;-76
2022/10/24 02:35:03;;;;;;;0.10;0.10;;;11.50;99.90;;;;;;4995235;28;20058;-77
2022/10/24 02:37:38;;;;;;;0.55;0.55;;;11.50;99.90;;;;;;5010841;28;20026;-76
2022/10/24 02:40:10;;;;;;;0.10;0.10;;;11.60;99.90;;;;;;5011868;28;20045;-76
2022/10/24 02:42:58;;;;;;;2.65;2.55;;;11.50;99.90;;;;;;5011271;28;20290;-77
2022/10/24 02:45:25;;;;;;;2.95;2.85;;;11.50;99.90;;;;;;5009645;28;20037;-76
2022/10/24 02:47:55;;;;;;;0.60;0.60;;;11.50;99.90;;;;;;5011022;28;20035;-76
2022/10/24 02:50:21;;;;;;;0.10;0.10;;;11.50;99.90;;;;;;4993473;28;20030;-77
2022/10/24 02:52:47;;;;;;;0.10;0.10;;;11.50;99.90;;;;;;5009082;28;20633;-76
2022/10/24 02:55:13;;;;;;;0.05;0.05;;;11.50;99.90;;;;;;5010832;28;20045;-77
2022/10/24 02:57:39;;;;;;;0.30;0.30;;;11.50;99.90;;;;;;5010143;28;20042;-77
2022/10/24 03:00:06;;;;;;;0.10;0.10;;;11.50;99.90;;;;;;5010581;28;20053;-76
2022/10/24 03:02:32;;;;;;;6.35;3.92;;;11.50;99.90;;;;;;5008130;28;20018;-77
2022/10/24 03:05:01;;;;;;;0.10;0.10;;;11.40;99.90;;;;;;4993689;28;20002;-78
2022/10/24 03:07:27;;;;;;;0.10;0.10;;;11.40;99.90;;;;;;5009344;28;20019;-76
2022/10/24 03:09:52;;;;;;;0.30;0.30;;;11.40;99.90;;;;;;5009775;28;20038;-76
2022/10/24 03:12:20;;;;;;;0.43;0.43;;;11.40;99.90;;;;;;4991818;28;20090;-76
2022/10/24 03:14:46;;;;;;;0.20;0.20;;;11.40;99.90;;;;;;5008494;28;20421;-77
2022/10/24 03:17:12;;;;;;;0.20;0.20;;;11.30;99.90;;;;;;5010662;28;20022;-78
2022/10/24 03:19:37;;;;;;;0.10;0.10;;;11.30;99.90;;;;;;5010586;28;20065;-77
2022/10/24 03:22:06;;;;;;;2.13;2.03;;;11.20;99.90;;;;;;5009141;28;20026;-77
2022/10/24 03:24:32;;;;;;;0.10;0.10;;;11.30;99.90;;;;;;5008851;28;20030;-77
2022/10/24 03:26:58;;;;;;;0.60;0.60;;;11.30;99.90;;;;;;5006939;28;20019;-77
2022/10/24 03:29:23;;;;;;;0.10;0.10;;;11.30;99.90;;;;;;5009590;28;20022;-77
2022/10/24 03:31:49;;;;;;;0.10;0.10;;;11.20;99.90;;;;;;5009507;28;20021;-77
2022/10/24 03:34:16;;;;;;;0.05;0.05;;;11.20;99.90;;;;;;5009105;28;20025;-78
2022/10/24 03:36:42;;;;;;;0.10;0.10;;;11.20;99.90;;;;;;5009650;28;20023;-77
2022/10/24 03:39:14;;;;;;;0.10;0.10;;;11.30;99.90;;;;;;5009647;28;20037;-77
2022/10/24 03:41:40;;;;;;;0.20;0.20;;;11.20;99.90;;;;;;5010206;28;20026;-76
2022/10/24 03:44:06;;;;;;;0.43;0.43;;;11.10;99.90;;;;;;5009890;28;20033;-77
2022/10/24 03:46:31;;;;;;;0.10;0.10;;;11.10;99.90;;;;;;5009381;28;20002;-76
2022/10/24 03:48:59;;;;;;;10.65;9.93;;;11.10;99.90;;;;;;4991845;28;20018;-76
2022/10/24 03:51:25;;;;;;;0.20;0.20;;;11.10;99.90;;;;;;5005618;28;20038;-77
2022/10/24 03:53:50;;;;;;;0.10;0.10;;;11.00;99.90;;;;;;4984944;28;20043;-77
2022/10/24 03:56:19;;;;;;;0.15;0.15;;;11.10;99.90;;;;;;4968701;28;20513;-77
2022/10/24 03:58:45;;;;;;;0.10;0.10;;;11.00;99.90;;;;;;4984862;28;20027;-76
2022/10/24 04:01:16;;;;;;;0.10;0.10;;;11.00;99.90;;;;;;4984620;28;20441;-77
2022/10/24 04:03:43;;;;;;;0.20;0.20;;;11.00;99.90;;;;;;4984988;28;20279;-76
2022/10/24 04:06:08;;;;;;;16.88;4.38;;;11.00;99.90;;;;;;4984492;28;20026;-76
2022/10/24 04:08:34;;;;;;;0.22;0.22;;;11.00;99.90;;;;;;4983667;28;20022;-76
2022/10/24 04:11:00;;;;;;;0.47;0.47;;;11.00;99.90;;;;;;4985788;28;20531;-79
2022/10/24 04:13:26;;;;;;;0.32;0.32;;;11.00;99.90;;;;;;4984625;28;20023;-77
2022/10/24 04:15:52;;;;;;;0.20;0.20;;;11.00;99.90;;;;;;4985467;28;20118;-76
2022/10/24 04:18:18;;;;;;;0.65;0.65;;;11.00;99.90;;;;;;4986445;28;20014;-78
2022/10/24 04:20:46;;;;;;;0.10;0.10;;;11.00;99.90;;;;;;4985885;28;20251;-76
2022/10/24 04:23:12;;;;;;;0.10;0.10;;;10.90;99.90;;;;;;4997674;28;20057;-78
2022/10/24 04:25:40;;;;;;;0.10;0.10;;;10.90;99.90;;;;;;5000906;28;20501;-76
2022/10/24 04:28:05;;;;;;;0.00;0.00;;;10.90;99.90;;;;;;4980496;28;20037;-77
2022/10/24 04:30:32;;;;;;;0.10;0.10;;;10.90;99.90;;;;;;4978433;28;20023;-77
2022/10/24 04:32:57;;;;;;;0.10;0.10;;;10.90;99.90;;;;;;4993380;28;20026;-77
2022/10/24 04:35:24;;;;;;;0.00;0.00;;;10.90;99.90;;;;;;5003066;28;20003;-76
2022/10/24 04:37:54;;;;;;;0.10;0.10;;;10.90;99.90;;;;;;4993759;28;20093;-76
2022/10/24 04:40:20;;;;;;;0.10;0.10;;;10.90;99.90;;;;;;4982613;28;20109;-76
2022/10/24 04:42:52;;;;;;;3.25;3.13;;;10.90;99.90;;;;;;4982195;28;20185;-77
2022/10/24 04:45:18;;;;;;;0.10;0.10;;;10.60;99.90;;;;;;4982396;28;20605;-76
2022/10/24 04:47:44;;;;;;;0.00;0.00;;;10.90;99.90;;;;;;4984051;28;20023;-77
2022/10/24 04:50:13;;;;;;;0.10;0.10;;;10.80;99.90;;;;;;4983462;28;20031;-78
2022/10/24 04:52:40;;;;;;;0.10;0.10;;;10.80;99.90;;;;;;4975360;28;20022;-76
2022/10/24 04:55:09;;;;;;;0.10;0.10;;;10.70;99.90;;;;;;4996366;28;20327;-77
2022/10/24 04:57:41;;;;;;;7.07;6.63;;;10.80;99.90;;;;;;4996739;28;20033;-76
2022/10/24 05:00:10;;;;;;;0.10;0.10;;;10.70;99.90;;;;;;5003372;28;20035;-76
2022/10/24 05:02:35;;;;;;;0.10;0.10;;;10.80;99.90;;;;;;5006688;28;20031;-76
2022/10/24 05:05:05;;;;;;;0.40;0.40;;;10.70;99.90;;;;;;5005050;28;20037;-78
2022/10/24 05:07:31;;;;;;;0.13;0.13;;;10.70;99.90;;;;;;4985577;28;20483;-77
2022/10/24 05:09:59;;;;;;;0.10;0.10;;;10.70;99.90;;;;;;5004003;28;20448;-77
2022/10/24 05:12:30;;;;;;;0.10;0.10;;;10.80;99.90;;;;;;5007919;28;20031;-76
2022/10/24 05:14:58;;;;;;;0.10;0.10;;;10.60;99.90;;;;;;5010189;28;20029;-79
2022/10/24 05:17:24;;;;;;;0.10;0.10;;;10.60;99.90;;;;;;5006932;28;20114;-76
2022/10/24 05:19:54;;;;;;;0.73;0.73;;;10.60;99.90;;;;;;5012474;28;20026;-76
2022/10/24 05:22:20;;;;;;;0.10;0.10;;;9.90;99.90;;;;;;4994272;28;20043;-77
2022/10/24 05:24:45;;;;;;;2.30;1.23;;;10.60;99.90;;;;;;4983061;28;20344;-76
2022/10/24 05:27:14;;;;;;;1.15;1.15;;;;;;;;;;5008447;28;20425;-77
2022/10/24 05:29:46;;;;;;;0.10;0.10;;;10.60;99.90;;;;;;5011820;28;20474;-78
2022/10/24 05:32:31;;;;;;;0.10;0.10;;;10.60;99.90;;;;;;5015269;28;20022;-77
2022/10/24 05:35:00;;;;;;;0.10;0.10;;;11.20;99.90;;;;;;5015691;28;20083;-77
2022/10/24 05:37:26;;;;;;;2.05;1.95;;;10.70;99.90;;;;;;5009626;28;20041;-79
2022/10/24 05:39:51;;;;;;;0.10;0.10;;;10.60;99.90;;;;;;5012163;28;20047;-81
2022/10/24 05:42:17;;;;;;;4.32;4.18;;;10.30;99.90;;;;;;5011575;28;20026;-80
2022/10/24 05:44:46;;;;;;;0.10;0.10;;;10.80;99.90;;;;;;5011662;28;20026;-78
2022/10/24 05:47:14;;;;;;;5.45;5.10;;;10.80;99.90;;;;;;5013871;28;20050;-78
2022/10/24 05:49:39;;;;;;;0.10;0.10;;;10.80;99.90;;;;;;5009671;28;20026;-76
2022/10/24 05:52:05;;;;;;;0.10;0.10;;;10.80;99.90;;;;;;5010918;28;20090;-77
2022/10/24 05:54:31;;;;;;;0.30;0.30;;;10.90;99.90;;;;;;5010517;28;20058;-77
2022/10/24 05:57:01;;;;;;;0.10;0.10;;;10.80;99.90;;;;;;5008358;28;20030;-76
2022/10/24 05:59:28;;;;;;;0.20;0.20;;;10.90;99.90;;;;;;5003235;28;20049;-77
2022/10/24 06:01:56;;;;;;;0.57;0.55;;;10.90;99.90;;;;;;5005497;28;20046;-77
2022/10/24 06:04:22;;;;;;;0.10;0.10;;;11.00;99.90;;;;;;5005908;28;20011;-83
2022/10/24 06:06:51;;;;;;;0.10;0.10;;;11.10;99.90;;;;;;5004559;28;20025;-78
2022/10/24 06:09:16;;;;;;;0.10;0.10;;;11.10;99.90;;;;;;5005165;28;20057;-77
2022/10/24 06:11:42;;;;;;;0.10;0.10;;;11.10;99.90;;;;;;5001860;28;20027;-83
2022/10/24 06:14:09;;;;;;;0.20;0.20;;;11.20;99.90;;;;;;5008941;28;20057;-78
2022/10/24 06:16:35;;;;;;;1.65;1.55;;;11.30;99.90;;;;;;5001313;28;20077;-77
2022/10/24 06:19:01;;;;;;;0.25;0.25;;;11.30;99.90;;;;;;4969627;28;20312;-76
2022/10/24 06:21:27;;;;;;;0.10;0.10;;;11.40;99.90;;;;;;4984696;28;20365;-76
2022/10/24 06:23:52;;;;;;;0.10;0.10;;;11.50;99.90;;;;;;4987479;28;20584;-76
2022/10/24 06:26:19;;;;;;;36.10;13.77;;;11.50;99.90;;;;;;4985496;28;20082;-76
2022/10/24 06:28:45;;;;;;;9.93;8.98;;;11.50;99.90;;;;;;4983022;28;20220;-76
2022/10/24 06:31:12;;;;;;;0.10;0.10;;;11.60;99.90;;;;;;4983004;28;20474;-76
2022/10/24 06:33:38;;;;;;;0.30;0.30;;;11.20;99.90;;;;;;4987841;28;20027;-78
2022/10/24 06:36:13;;;;;;;0.20;0.20;;;11.80;99.90;;;;;;4992017;28;20429;-77
2022/10/24 06:38:39;;;;;;;0.95;0.95;;;12.40;99.90;;;;;;4992408;28;20394;-80
2022/10/24 06:41:09;;;;;;;0.10;0.10;;;12.00;99.90;;;;;;4983466;28;20023;-79
2022/10/24 06:43:36;;;;;;;1.13;1.13;;;12.20;99.90;;;;;;4982862;28;20098;-79
2022/10/24 06:46:11;;;;;;;0.10;0.10;;;12.20;99.90;;;;;;4981097;28;20343;-90
2022/10/24 06:48:37;;;;;;;0.10;0.10;;;12.30;99.90;;;;;;4981005;28;20037;-79
2022/10/24 06:51:03;;;;;;;0.10;0.10;;;12.40;99.90;;;;;;4981507;28;20018;-78
2022/10/24 06:53:29;;;;;;;0.20;0.20;;;12.50;99.90;;;;;;4980405;28;20235;-77
2022/10/24 06:56:02;;;;;;;18.52;5.47;;;12.50;99.90;;;;;;4980494;28;20034;-79
2022/10/24 06:58:35;;;;;;;0.15;0.15;;;12.60;99.90;;;;;;4980019;28;20030;-77
2022/10/24 07:01:28;;;;;;;0.10;0.10;;;12.60;99.90;;;;;;4979845;28;20030;-77
2022/10/24 07:03:54;;;;;;;1.27;1.27;;;12.70;99.90;;;;;;4976535;28;20038;-79
2022/10/24 07:06:23;;;;;;;0.60;0.60;;;12.80;99.90;;;;;;4979819;28;20528;-80
2022/10/24 07:08:51;;;;;;;0.20;0.20;;;12.80;99.90;;;;;;4980082;28;20289;-77
2022/10/24 07:11:17;;;;;;;0.40;0.40;;;12.90;99.90;;;;;;4979726;28;20450;-84
2022/10/24 07:13:43;;;;;;;1.00;1.00;;;13.00;99.90;;;;;;4979757;28;20062;-86
2022/10/24 07:16:09;;;;;;;0.40;0.40;;;13.10;99.90;;;;;;4979523;28;20117;-77
2022/10/24 07:18:35;;;;;;;0.52;0.52;;;13.30;99.90;;;;;;4977608;28;20034;-89
2022/10/24 07:21:03;;;;;;;0.20;0.20;;;13.40;99.90;;;;;;4979567;28;20027;-77
2022/10/24 07:23:28;;;;;;;0.43;0.43;;;13.50;99.90;;;;;;4979748;28;20080;-77
2022/10/24 07:25:59;;;;;;;0.20;0.20;;;13.60;99.90;;;;;;4979646;28;20023;-81
2022/10/24 07:28:25;;;;;;;0.20;0.20;;;11.20;99.90;;;;;;4979101;28;20317;-77
2022/10/24 07:30:50;;;;;;;0.93;0.93;;;13.50;99.90;;;;;;4979209;28;20022;-80
2022/10/24 07:33:16;;;;;;;0.30;0.30;;;13.90;99.90;;;;;;4979064;28;20539;-78
2022/10/24 07:35:42;;;;;;;6.53;5.65;;;14.00;99.90;;;;;;4979733;28;20207;-79
2022/10/24 07:38:08;;;;;;;1.25;1.20;;;14.20;99.90;;;;;;4979248;28;20643;-78
2022/10/24 07:40:34;;;;;;;1.75;1.67;;;14.30;99.90;;;;;;4978989;28;20669;-77
2022/10/24 07:43:00;;;;;;;0.50;0.50;;;14.40;99.90;;;;;;4979161;28;20306;-77
2022/10/24 07:45:27;;;;;;;0.30;0.30;;;14.60;99.90;;;;;;4978903;28;20387;-79
2022/10/24 07:47:52;;;;;;;13.70;8.85;;;14.70;99.90;;;;;;4961496;28;20644;-77
2022/10/24 07:50:18;;;;;;;5.45;3.78;;;14.90;99.90;;;;;;4976829;28;20062;-78
2022/10/24 07:52:44;;;;;;;0.57;0.55;;;15.00;99.90;;;;;;4978438;28;20034;-81
2022/10/24 07:55:10;;;;;;;0.28;0.28;;;15.30;99.90;;;;;;4978882;28;20037;-78
2022/10/24 07:57:36;;;;;;;1.17;1.17;;;15.40;99.90;;;;;;4978917;28;20513;-82
2022/10/24 08:00:03;;;;;;;0.55;0.55;;;15.50;99.90;;;;;;4978915;28;20063;-80
2022/10/24 08:02:29;;;;;;;0.10;0.10;;;15.50;99.90;;;;;;4978322;28;20110;-84
2022/10/24 08:04:55;;;;;;;7.28;5.35;;;15.70;99.90;;;;;;4978623;28;20105;-78
2022/10/24 08:07:20;;;;;;;0.80;0.80;;;15.90;99.90;;;;;;4979077;28;20027;-78
2022/10/24 08:09:49;;;;;;;9.02;8.27;;;16.00;99.90;;;;;;4979086;28;20018;-77
2022/10/24 08:12:16;;;;;;;0.28;0.28;;;16.20;99.90;;;;;;4978960;28;20045;-77
2022/10/24 08:14:41;;;;;;;0.20;0.20;;;16.30;99.90;;;;;;4978793;28;20173;-77
2022/10/24 08:17:07;;;;;;;0.88;0.88;;;16.40;99.90;;;;;;4978353;28;20046;-78
2022/10/24 08:19:33;;;;;;;0.65;0.65;;;16.50;99.90;;;;;;4978880;28;20027;-94
2022/10/24 08:22:00;;;;;;;6.55;6.13;;;16.60;99.90;;;;;;4978757;28;20022;-82
2022/10/24 08:24:26;;;;;;;0.25;0.25;;;16.70;99.90;;;;;;4978759;28;20022;-76
2022/10/24 08:26:55;;;;;;;1.80;1.70;;;17.10;99.90;;;;;;4979469;28;20022;-78
2022/10/24 08:29:22;;;;;;;0.32;0.32;;;17.10;99.90;;;;;;4976533;28;20072;-78
2022/10/24 08:31:52;;;;;;;0.35;0.35;;;17.20;99.90;;;;;;4977747;28;20034;-79
2022/10/24 08:34:18;;;;;;;1.83;1.73;;;17.40;99.90;;;;;;4978358;28;20177;-76
2022/10/24 08:36:46;;;;;;;16.08;5.88;;;17.50;99.90;;;;;;4978303;28;20037;-76
2022/10/24 08:39:11;;;;;;;9.50;8.50;;;17.70;99.90;;;;;;4978256;28;20093;-77
2022/10/24 08:41:49;;;;;;;0.40;0.40;;;17.90;99.90;;;;;;4977862;28;20122;-78
2022/10/24 08:44:21;;;;;;;0.20;0.20;;;18.10;99.90;;;;;;4978037;28;20102;-76
2022/10/24 08:47:01;;;;;;;0.55;0.55;;;18.20;99.90;;;;;;4976829;28;20092;-77
2022/10/24 08:49:52;;;;;;;0.20;0.20;;;18.40;99.90;;;;;;4960688;28;20030;-75
2022/10/24 08:52:35;;;;;;;2.55;2.45;;;18.30;99.90;;;;;;4977735;28;20014;-76
2022/10/24 08:55:15;;;;;;;1.50;1.40;;;18.50;99.90;;;;;;4977327;28;20332;-76
2022/10/24 08:57:45;;;;;;;1.17;1.10;;;18.50;99.90;;;;;;4978063;28;20413;-76
2022/10/24 09:00:19;;;;;;;0.40;0.40;;;18.50;99.90;;;;;;4960423;28;20521;-76
2022/10/24 09:02:58;;;;;;;0.30;0.30;;;18.70;99.90;;;;;;4977737;28;20037;-83
2022/10/24 09:05:35;;;;;;;0.20;0.20;;;18.70;99.90;;;;;;4978582;28;20324;-76
2022/10/24 09:08:24;;;;;;;0.28;0.28;;;18.90;99.90;;;;;;4961362;28;20417;-77
2022/10/24 09:11:02;;;;;;;0.90;0.90;;;19.00;99.90;;;;;;4977999;28;20077;-76
2022/10/24 09:13:29;;;;;;;2.13;1.33;;;19.00;99.90;;;;;;4961329;28;20065;-76
2022/10/24 09:15:55;;;;;;;0.20;0.20;;;19.10;99.90;;;;;;4978519;28;20054;-78
2022/10/24 09:18:25;;;;;;;0.38;0.38;;;19.30;99.90;;;;;;4979581;28;20528;-84
2022/10/24 09:20:52;;;;;;;0.10;0.10;;;19.50;99.90;;;;;;4979015;28;20033;-88
2022/10/24 09:23:21;;;;;;;1.15;1.05;;;19.60;99.40;;;;;;4961357;28;20023;-79
2022/10/24 09:25:50;;;;;;;1.85;1.75;;;19.70;99.40;;;;;;4978055;28;20382;-76
2022/10/24 09:28:17;;;;;;;2.55;1.58;;;19.90;98.70;;;;;;4978541;28;20030;-86
2022/10/24 09:30:43;;;;;;;0.20;0.20;;;20.00;98.40;;;;;;4978385;28;20406;-83
2022/10/24 09:33:29;;;;;;;0.10;0.10;;;20.20;98.20;;;;;;4978423;28;20023;-83
2022/10/24 09:35:58;;;;;;;2.92;2.72;;;20.30;98.10;;;;;;4978181;28;20311;-76
2022/10/24 09:38:26;;;;;;;0.30;0.30;;;20.40;98.20;;;;;;4977948;28;20068;-81
2022/10/24 09:40:58;;;;;;;0.85;0.85;;;20.50;97.60;;;;;;4960520;28;20595;-76
2022/10/24 09:43:38;;;;;;;0.75;0.75;;;20.50;97.60;;;;;;4980521;28;20015;-80
2022/10/24 09:46:11;;;;;;;0.40;0.40;;;20.70;97.20;;;;;;4981901;28;20573;-80
2022/10/24 09:49:00;;;;;;;2.40;2.30;;;20.70;97.50;;;;;;4981692;28;20061;-81
2022/10/24 09:51:40;;;;;;;1.85;1.65;;;20.80;96.90;;;;;;4981444;28;20259;-78
2022/10/24 09:54:17;;;;;;;0.73;0.73;;;20.90;97.00;;;;;;4980966;28;20129;-78
2022/10/24 09:57:16;;;;;;;0.63;0.63;;;21.10;96.50;;;;;;4979681;28;20032;-82
2022/10/24 09:59:59;;;;;;;5.85;5.32;;;21.10;95.90;;;;;;4901874;29;20527;-77
2022/10/24 10:02:27;;;;;;;0.20;0.20;;;21.20;95.30;;;;;;4901587;29;20040;-78
2022/10/24 10:05:02;;;;;;;0.93;0.93;;;21.30;95.30;;;;;;4901636;29;20343;-81
2022/10/24 10:07:37;;;;;;;6.72;6.03;;;21.40;96.10;;;;;;4901373;29;20076;-78
2022/10/24 10:10:17;;;;;;;2.83;2.22;;;21.60;94.70;;;;;;4901540;29;20060;-77
2022/10/24 10:12:45;;;;;;;2.35;2.15;;;21.70;94.30;;;;;;4902674;29;20216;-81
2022/10/24 10:15:25;;;;;;;10.50;9.48;;;22.00;93.50;;;;;;4903376;29;20129;-79
2022/10/24 10:17:54;;;;;;;5.10;4.75;;;22.20;92.90;;;;;;4904807;29;20486;-79
2022/10/24 10:20:27;;;;;;;1.85;1.75;;;22.50;93.50;;;;;;4903799;29;20035;-79
2022/10/24 10:22:52;;;;;;;0.47;0.47;;;22.70;92.30;;;;;;4902855;29;20294;-77
2022/10/24 10:25:36;;;;;;;3.20;2.92;;;23.00;91.90;;;;;;4902752;29;20340;-86
2022/10/24 10:28:02;;;;;;;0.22;0.22;;;23.30;91.40;;;;;;4902032;29;20096;-87
2022/10/24 10:30:28;;;;;;;2.03;1.92;;;22.70;90.00;;;;;;4901607;29;20040;-84
2022/10/24 10:33:19;;;;;;;5.05;3.90;;;23.50;91.00;;;;;;4901435;29;20107;-78
2022/10/24 10:35:56;;;;;;;1.35;1.27;;;23.60;87.60;;;;;;4954086;28;20320;-79
2022/10/24 10:38:41;;;;;;;0.77;0.77;;;23.70;87.50;;;;;;4981200;28;20019;-90
2022/10/24 10:41:24;;;;;;;3.20;3.00;;;24.00;88.50;;;;;;4980893;28;20073;-78
2022/10/24 10:44:05;;;;;;;3.42;3.13;;;24.30;86.70;;;;;;4981142;28;20615;-78
2022/10/24 10:46:51;;;;;;;3.60;3.30;;;24.40;86.50;;;;;;4980929;28;20026;-85
2022/10/24 10:49:29;;;;;;;2.70;1.80;;;24.60;84.30;;;;;;4980781;28;20050;-77
2022/10/24 10:52:40;;;;;;;0.45;0.30;;;24.80;82.40;;;;;;4981161;28;20320;-76
2022/10/24 10:55:35;;;;;;;0.13;0.13;;;25.00;81.20;;;;;;4980125;28;20161;-80
2022/10/24 10:58:27;;;;;;;23.05;1.48;;;25.30;79.10;;;;;;4980711;28;20331;-80
2022/10/24 11:01:11;;;;;;;0.15;0.15;;;25.60;77.90;;;;;;4980220;28;20101;-79
2022/10/24 11:03:49;;;;;;;1.35;1.10;;;25.80;76.50;;;;;;4980366;28;20030;-77
2022/10/24 11:06:43;;;;;;;0.10;0.10;;;26.00;76.30;;;;;;4980384;28;20030;-77
2022/10/24 11:09:21;;;;;;;;;;;26.20;76.40;;;;;;4980247;28;20084;-78
2022/10/24 11:12:05;;;;;;;0.20;0.20;;;26.30;74.20;;;;;;4979876;28;19913;-77
2022/10/24 11:14:42;;;;;;;1.35;1.25;;;26.50;74.50;;;;;;4980280;28;20050;-80
2022/10/24 11:17:25;;;;;;;0.20;0.20;;;26.50;72.40;;;;;;4979812;28;20076;-79
2022/10/24 11:19:56;;;;;;;;;;;26.60;71.80;;;;;;4980030;28;20069;-77
2022/10/24 11:22:31;;;;;;;0.75;0.75;;;26.70;72.00;;;;;;4979591;28;19913;-82
2022/10/24 11:25:15;;;;;;;3.67;2.13;;;26.90;73.40;;;;;;4978292;28;20022;-77
2022/10/24 11:27:49;;;;;;;0.20;0.20;;;27.10;70.40;;;;;;4979971;28;20387;-81
2022/10/24 11:30:17;;;;;;;0.25;0.25;;;27.40;70.60;;;;;;4978934;28;20660;-77
2022/10/24 11:32:58;;;;;;;0.20;0.20;;;27.60;67.10;;;;;;4979629;28;20092;-84
2022/10/24 11:35:36;;;;;;;1.35;0.90;;;27.80;68.30;;;;;;4979862;28;20030;-78
2022/10/24 11:38:23;;;;;;;1.48;1.02;;;28.00;65.60;;;;;;4962515;28;20105;-84
2022/10/24 11:40:59;;;;;;;1.75;1.65;;;28.20;64.00;;;;;;4979210;28;20026;-78
2022/10/24 11:43:36;;;;;;;1.88;0.65;;;28.40;64.80;;;;;;4979622;28;20034;-78
2022/10/24 11:46:19;;;;;;;0.77;0.50;;;28.60;62.90;;;;;;4979492;28;20081;-83
2022/10/24 11:49:31;;;;;;;0.10;0.10;;;28.80;61.90;;;;;;4979468;28;20116;-83
2022/10/24 11:52:04;;;;;;;0.10;0.10;;;29.00;62.20;;;;;;4894356;29;20039;-78
2022/10/24 11:54:38;;;;;;;1.38;1.08;;;29.20;59.40;;;;;;4899950;29;20059;-79
2022/10/24 11:57:12;;;;;;;1.40;0.10;;;29.30;58.10;;;;;;4899895;29;20127;-78
2022/10/24 11:59:38;;;;;;;2.00;1.85;;;29.20;57.40;;;;;;4899681;29;20579;-77
2022/10/24 12:02:28;;;;;;;0.25;0.25;;;29.00;56.30;;;;;;4899594;29;20250;-89
2022/10/24 12:05:13;;;;;;;0.10;0.10;;;29.00;58.30;;;;;;4899149;29;20218;-79
2022/10/24 12:07:44;;;;;;;1.17;1.15;;;29.30;57.60;;;;;;4898721;29;20024;-80
2022/10/24 12:10:39;;;;;;;0.10;0.10;;;29.50;57.20;;;;;;4899177;29;20534;-85
2022/10/24 12:13:35;;;;;;;1.13;1.02;;;29.70;57.00;;;;;;4899266;29;20163;-80
2022/10/24 12:16:38;;;;;;;0.60;0.60;;;29.90;56.60;;;;;;4898996;29;20335;-79
2022/10/24 12:19:10;;;;;;;0.17;0.17;;;29.90;55.80;;;;;;4899407;29;20039;-78
2022/10/24 12:21:40;;;;;;;0.40;0.40;;;29.90;55.40;;;;;;4899720;29;20028;-83
2022/10/24 12:24:21;;;;;;;0.10;0.10;;;30.00;55.30;;;;;;4899374;29;20099;-77
2022/10/24 12:26:55;;;;;;;0.10;0.10;;;30.20;55.10;;;;;;4898749;29;20076;-83
2022/10/24 12:29:25;;;;;;;1.92;0.82;;;30.20;55.60;;;;;;4962351;28;20547;-80
2022/10/24 12:31:51;;;;;;;0.95;0.95;;;30.20;55.60;;;;;;4978010;28;20316;-80
2022/10/24 12:34:17;;;;;;;0.40;0.40;;;30.40;55.50;;;;;;4978556;28;20022;-79
2022/10/24 12:37:10;;;;;;;0.32;0.32;;;30.50;54.80;;;;;;4978863;28;20053;-77
2022/10/24 12:39:37;;;;;;;;;;;30.70;54.70;;;;;;4978867;28;20324;-78
2022/10/24 12:42:04;;;;;;;0.43;0.35;;;30.70;54.90;;;;;;4978066;28;20004;-77
2022/10/24 12:44:33;;;;;;;0.43;0.28;;;30.70;55.00;;;;;;4961041;28;20073;-77
2022/10/24 12:47:15;;;;;;;3.85;1.98;;;30.80;54.80;;;;;;4977532;28;20205;-80
2022/10/24 12:49:41;;;;;;;0.70;0.68;;;30.90;54.70;;;;;;4978662;28;20122;-89
2022/10/24 12:52:30;;;;;;;4.05;1.38;;;31.00;54.60;;;;;;4977277;28;20208;-78
2022/10/24 12:54:56;;;;;;;4.97;1.65;;;31.00;54.30;;;;;;4967893;28;20046;-77
2022/10/24 12:57:30;;;;;;;0.35;0.35;;;30.90;54.10;;;;;;4977228;28;20663;-81
2022/10/24 12:59:58;;;;;;;0.35;0.30;;;30.90;54.70;;;;;;4978464;28;20052;-78
2022/10/24 13:02:38;;;;;;;2.22;0.68;;;30.90;53.60;;;;;;4978806;28;20026;-85
2022/10/24 13:05:32;;;;;;;1.45;1.40;;;30.90;53.70;;;;;;4978382;28;20073;-81
2022/10/24 13:08:25;;;;;;;0.00;0.00;;;30.80;54.00;;;;;;4978056;28;20094;-82
2022/10/24 13:10:57;;;;;;;0.75;0.45;;;30.80;54.20;;;;;;4978025;28;20524;-85
2022/10/24 13:13:31;;;;;;;13.25;3.78;;;30.70;53.90;;;;;;4978339;28;20045;-77
2022/10/24 13:16:33;;;;;;;0.10;0.10;;;30.80;53.90;;;;;;4978204;28;20531;-79
2022/10/24 13:19:10;;;;;;;0.30;0.30;;;30.90;54.00;;;;;;4981925;28;20617;-76